sensor_id;sensor_type;location;lat;lon;timestamp;P1;durP1;ratioP1;P2;durP2;ratioP2
77591;SDS011;66891;46.884;17.436;2023-04-29T00:02:22;12.13;;;4.57;;
77591;SDS011;66891;46.884;17.436;2023-04-29T00:04:49;11.95;;;4.40;;
77591;SDS011;66891;46.884;17.436;2023-04-29T00:07:17;11.27;;;4.00;;
77591;SDS011;66891;46.884;17.436;2023-04-29T00:09:45;9.18;;;3.88;;
77591;SDS011;66891;46.884;17.436;2023-04-29T00:12:14;9.02;;;3.70;;
77591;SDS011;66891;46.884;17.436;2023-04-29T00:14:41;10.00;;;3.67;;
77591;SDS011;66891;46.884;17.436;2023-04-29T00:17:09;9.02;;;3.50;;
77591;SDS011;66891;46.884;17.436;2023-04-29T00:19:36;9.18;;;3.70;;
77591;SDS011;66891;46.884;17.436;2023-04-29T00:22:04;10.70;;;3.70;;
77591;SDS011;66891;46.884;17.436;2023-04-29T00:24:31;10.38;;;3.70;;
77591;SDS011;66891;46.884;17.436;2023-04-29T00:26:59;8.70;;;3.43;;
77591;SDS011;66891;46.884;17.436;2023-04-29T00:29:29;8.98;;;3.70;;
77591;SDS011;66891;46.884;17.436;2023-04-29T00:31:57;9.00;;;3.90;;
77591;SDS011;66891;46.884;17.436;2023-04-29T00:34:24;10.98;;;4.18;;
77591;SDS011;66891;46.884;17.436;2023-04-29T00:36:52;13.38;;;4.38;;
77591;SDS011;66891;46.884;17.436;2023-04-29T00:39:19;9.83;;;4.30;;
77591;SDS011;66891;46.884;17.436;2023-04-29T00:41:46;10.23;;;3.80;;
77591;SDS011;66891;46.884;17.436;2023-04-29T00:44:14;9.90;;;3.92;;
77591;SDS011;66891;46.884;17.436;2023-04-29T00:46:42;8.73;;;3.90;;
77591;SDS011;66891;46.884;17.436;2023-04-29T00:49:12;9.50;;;4.03;;
77591;SDS011;66891;46.884;17.436;2023-04-29T00:51:39;10.27;;;4.10;;
77591;SDS011;66891;46.884;17.436;2023-04-29T00:54:07;10.30;;;3.35;;
77591;SDS011;66891;46.884;17.436;2023-04-29T00:56:36;10.05;;;4.07;;
77591;SDS011;66891;46.884;17.436;2023-04-29T00:59:05;11.38;;;4.10;;
77591;SDS011;66891;46.884;17.436;2023-04-29T01:01:35;10.55;;;3.85;;
77591;SDS011;66891;46.884;17.436;2023-04-29T01:04:04;9.57;;;4.10;;
77591;SDS011;66891;46.884;17.436;2023-04-29T01:06:36;12.80;;;3.90;;
77591;SDS011;66891;46.884;17.436;2023-04-29T01:09:25;9.55;;;4.10;;
77591;SDS011;66891;46.884;17.436;2023-04-29T01:12:05;10.48;;;3.90;;
77591;SDS011;66891;46.884;17.436;2023-04-29T01:14:40;9.13;;;4.10;;
77591;SDS011;66891;46.884;17.436;2023-04-29T01:17:11;9.77;;;4.03;;
77591;SDS011;66891;46.884;17.436;2023-04-29T01:19:46;14.23;;;4.00;;
77591;SDS011;66891;46.884;17.436;2023-04-29T01:22:16;8.13;;;3.38;;
77591;SDS011;66891;46.884;17.436;2023-04-29T01:24:46;9.00;;;3.72;;
77591;SDS011;66891;46.884;17.436;2023-04-29T01:27:16;10.68;;;3.63;;
77591;SDS011;66891;46.884;17.436;2023-04-29T01:29:52;9.43;;;4.20;;
77591;SDS011;66891;46.884;17.436;2023-04-29T01:32:29;10.23;;;4.03;;
77591;SDS011;66891;46.884;17.436;2023-04-29T01:35:05;12.50;;;4.25;;
77591;SDS011;66891;46.884;17.436;2023-04-29T01:37:47;12.40;;;4.40;;
77591;SDS011;66891;46.884;17.436;2023-04-29T01:40:21;9.88;;;3.97;;
77591;SDS011;66891;46.884;17.436;2023-04-29T01:42:55;10.87;;;4.50;;
77591;SDS011;66891;46.884;17.436;2023-04-29T01:45:27;10.30;;;4.78;;
77591;SDS011;66891;46.884;17.436;2023-04-29T01:47:55;12.65;;;4.70;;
77591;SDS011;66891;46.884;17.436;2023-04-29T01:50:25;11.73;;;4.82;;
77591;SDS011;66891;46.884;17.436;2023-04-29T01:52:52;13.18;;;5.38;;
77591;SDS011;66891;46.884;17.436;2023-04-29T01:55:21;11.73;;;5.47;;
77591;SDS011;66891;46.884;17.436;2023-04-29T01:57:49;11.23;;;5.15;;
77591;SDS011;66891;46.884;17.436;2023-04-29T02:00:16;12.52;;;5.18;;
77591;SDS011;66891;46.884;17.436;2023-04-29T02:02:44;11.48;;;4.85;;
77591;SDS011;66891;46.884;17.436;2023-04-29T02:05:12;13.27;;;4.90;;
77591;SDS011;66891;46.884;17.436;2023-04-29T02:07:39;12.17;;;4.60;;
77591;SDS011;66891;46.884;17.436;2023-04-29T02:10:08;10.55;;;4.65;;
77591;SDS011;66891;46.884;17.436;2023-04-29T02:12:37;9.20;;;4.05;;
77591;SDS011;66891;46.884;17.436;2023-04-29T02:15:05;8.57;;;3.67;;
77591;SDS011;66891;46.884;17.436;2023-04-29T02:17:33;9.70;;;4.00;;
77591;SDS011;66891;46.884;17.436;2023-04-29T02:20:00;11.10;;;3.93;;
77591;SDS011;66891;46.884;17.436;2023-04-29T02:22:28;9.40;;;4.10;;
77591;SDS011;66891;46.884;17.436;2023-04-29T02:24:55;11.77;;;4.13;;
77591;SDS011;66891;46.884;17.436;2023-04-29T02:27:23;9.65;;;4.30;;
77591;SDS011;66891;46.884;17.436;2023-04-29T02:29:53;9.63;;;3.90;;
77591;SDS011;66891;46.884;17.436;2023-04-29T02:32:21;9.23;;;3.83;;
77591;SDS011;66891;46.884;17.436;2023-04-29T02:34:48;9.57;;;3.97;;
77591;SDS011;66891;46.884;17.436;2023-04-29T02:37:15;11.55;;;3.60;;
77591;SDS011;66891;46.884;17.436;2023-04-29T02:39:43;9.52;;;3.90;;
77591;SDS011;66891;46.884;17.436;2023-04-29T02:42:10;9.85;;;3.75;;
77591;SDS011;66891;46.884;17.436;2023-04-29T02:44:38;9.13;;;4.20;;
77591;SDS011;66891;46.884;17.436;2023-04-29T02:47:07;8.15;;;3.97;;
77591;SDS011;66891;46.884;17.436;2023-04-29T02:49:34;9.05;;;3.80;;
77591;SDS011;66891;46.884;17.436;2023-04-29T02:52:01;9.20;;;4.00;;
77591;SDS011;66891;46.884;17.436;2023-04-29T02:54:29;9.50;;;4.00;;
77591;SDS011;66891;46.884;17.436;2023-04-29T02:56:56;9.87;;;4.07;;
77591;SDS011;66891;46.884;17.436;2023-04-29T02:59:24;9.50;;;3.92;;
77591;SDS011;66891;46.884;17.436;2023-04-29T03:01:52;10.57;;;3.77;;
77591;SDS011;66891;46.884;17.436;2023-04-29T03:04:21;12.70;;;5.28;;
77591;SDS011;66891;46.884;17.436;2023-04-29T03:06:49;13.75;;;5.82;;
77591;SDS011;66891;46.884;17.436;2023-04-29T03:09:17;13.70;;;5.97;;
77591;SDS011;66891;46.884;17.436;2023-04-29T03:11:44;13.30;;;5.68;;
77591;SDS011;66891;46.884;17.436;2023-04-29T03:14:12;11.67;;;5.77;;
77591;SDS011;66891;46.884;17.436;2023-04-29T03:16:39;12.80;;;4.95;;
77591;SDS011;66891;46.884;17.436;2023-04-29T03:19:07;10.85;;;5.00;;
77591;SDS011;66891;46.884;17.436;2023-04-29T03:21:36;14.63;;;5.90;;
77591;SDS011;66891;46.884;17.436;2023-04-29T03:24:03;12.77;;;6.10;;
77591;SDS011;66891;46.884;17.436;2023-04-29T03:26:31;15.30;;;7.17;;
77591;SDS011;66891;46.884;17.436;2023-04-29T03:28:58;16.27;;;7.30;;
77591;SDS011;66891;46.884;17.436;2023-04-29T03:31:25;14.55;;;6.93;;
77591;SDS011;66891;46.884;17.436;2023-04-29T03:33:53;12.88;;;7.10;;
77591;SDS011;66891;46.884;17.436;2023-04-29T03:36:20;14.80;;;7.07;;
77591;SDS011;66891;46.884;17.436;2023-04-29T03:38:49;15.97;;;6.97;;
77591;SDS011;66891;46.884;17.436;2023-04-29T03:41:16;15.85;;;7.82;;
77591;SDS011;66891;46.884;17.436;2023-04-29T03:43:43;13.95;;;7.00;;
77591;SDS011;66891;46.884;17.436;2023-04-29T03:46:11;14.45;;;6.78;;
77591;SDS011;66891;46.884;17.436;2023-04-29T03:48:38;14.45;;;7.38;;
77591;SDS011;66891;46.884;17.436;2023-04-29T03:51:06;16.23;;;7.90;;
77591;SDS011;66891;46.884;17.436;2023-04-29T03:53:34;14.52;;;6.85;;
77591;SDS011;66891;46.884;17.436;2023-04-29T03:56:04;14.55;;;6.63;;
77591;SDS011;66891;46.884;17.436;2023-04-29T03:58:31;13.30;;;7.45;;
77591;SDS011;66891;46.884;17.436;2023-04-29T04:00:58;14.98;;;7.65;;
77591;SDS011;66891;46.884;17.436;2023-04-29T04:03:26;14.60;;;7.83;;
77591;SDS011;66891;46.884;17.436;2023-04-29T04:05:54;14.45;;;6.85;;
77591;SDS011;66891;46.884;17.436;2023-04-29T04:08:21;14.48;;;6.65;;
77591;SDS011;66891;46.884;17.436;2023-04-29T04:10:49;11.85;;;5.38;;
77591;SDS011;66891;46.884;17.436;2023-04-29T04:13:17;11.55;;;5.30;;
77591;SDS011;66891;46.884;17.436;2023-04-29T04:15:48;11.83;;;5.10;;
77591;SDS011;66891;46.884;17.436;2023-04-29T04:18:16;11.32;;;5.72;;
77591;SDS011;66891;46.884;17.436;2023-04-29T04:20:43;14.68;;;6.38;;
77591;SDS011;66891;46.884;17.436;2023-04-29T04:23:11;14.88;;;6.80;;
77591;SDS011;66891;46.884;17.436;2023-04-29T04:25:40;12.48;;;6.40;;
77591;SDS011;66891;46.884;17.436;2023-04-29T04:28:11;23.77;;;12.13;;
77591;SDS011;66891;46.884;17.436;2023-04-29T04:30:40;20.15;;;11.02;;
77591;SDS011;66891;46.884;17.436;2023-04-29T04:33:09;19.73;;;8.60;;
77591;SDS011;66891;46.884;17.436;2023-04-29T04:35:36;16.52;;;8.52;;
77591;SDS011;66891;46.884;17.436;2023-04-29T04:38:03;17.45;;;9.15;;
77591;SDS011;66891;46.884;17.436;2023-04-29T04:40:31;16.83;;;8.60;;
77591;SDS011;66891;46.884;17.436;2023-04-29T04:42:58;14.80;;;7.90;;
77591;SDS011;66891;46.884;17.436;2023-04-29T04:45:27;18.30;;;7.78;;
77591;SDS011;66891;46.884;17.436;2023-04-29T04:47:57;15.32;;;7.80;;
77591;SDS011;66891;46.884;17.436;2023-04-29T04:50:26;13.85;;;6.90;;
77591;SDS011;66891;46.884;17.436;2023-04-29T04:52:54;13.37;;;7.10;;
77591;SDS011;66891;46.884;17.436;2023-04-29T04:55:22;13.25;;;6.50;;
77591;SDS011;66891;46.884;17.436;2023-04-29T04:57:49;13.68;;;6.90;;
77591;SDS011;66891;46.884;17.436;2023-04-29T05:00:16;14.40;;;7.07;;
77591;SDS011;66891;46.884;17.436;2023-04-29T05:02:44;12.75;;;6.63;;
77591;SDS011;66891;46.884;17.436;2023-04-29T05:05:15;13.43;;;6.47;;
77591;SDS011;66891;46.884;17.436;2023-04-29T05:07:42;15.27;;;6.82;;
77591;SDS011;66891;46.884;17.436;2023-04-29T05:10:10;14.32;;;6.60;;
77591;SDS011;66891;46.884;17.436;2023-04-29T05:12:37;13.18;;;7.35;;
77591;SDS011;66891;46.884;17.436;2023-04-29T05:15:05;14.30;;;7.38;;
77591;SDS011;66891;46.884;17.436;2023-04-29T05:17:33;13.73;;;7.50;;
77591;SDS011;66891;46.884;17.436;2023-04-29T05:20:02;15.15;;;7.78;;
77591;SDS011;66891;46.884;17.436;2023-04-29T05:22:31;16.50;;;7.97;;
77591;SDS011;66891;46.884;17.436;2023-04-29T05:24:59;13.80;;;7.93;;
77591;SDS011;66891;46.884;17.436;2023-04-29T05:27:28;14.15;;;6.53;;
77591;SDS011;66891;46.884;17.436;2023-04-29T05:29:56;12.67;;;6.73;;
77591;SDS011;66891;46.884;17.436;2023-04-29T05:32:23;12.18;;;6.85;;
77591;SDS011;66891;46.884;17.436;2023-04-29T05:34:51;10.82;;;5.93;;
77591;SDS011;66891;46.884;17.436;2023-04-29T05:37:18;12.13;;;6.45;;
77591;SDS011;66891;46.884;17.436;2023-04-29T05:39:47;13.20;;;6.15;;
77591;SDS011;66891;46.884;17.436;2023-04-29T05:42:15;13.03;;;6.43;;
77591;SDS011;66891;46.884;17.436;2023-04-29T05:44:42;12.02;;;6.25;;
77591;SDS011;66891;46.884;17.436;2023-04-29T05:47:09;13.10;;;6.40;;
77591;SDS011;66891;46.884;17.436;2023-04-29T05:49:37;12.10;;;6.30;;
77591;SDS011;66891;46.884;17.436;2023-04-29T05:52:05;12.30;;;6.20;;
77591;SDS011;66891;46.884;17.436;2023-04-29T05:54:32;10.53;;;5.53;;
77591;SDS011;66891;46.884;17.436;2023-04-29T05:57:01;10.65;;;5.78;;
77591;SDS011;66891;46.884;17.436;2023-04-29T05:59:29;10.50;;;5.57;;
77591;SDS011;66891;46.884;17.436;2023-04-29T06:01:57;11.07;;;5.80;;
77591;SDS011;66891;46.884;17.436;2023-04-29T06:04:25;14.45;;;6.40;;
77591;SDS011;66891;46.884;17.436;2023-04-29T06:06:54;14.80;;;6.57;;
77591;SDS011;66891;46.884;17.436;2023-04-29T06:09:22;13.73;;;7.47;;
77591;SDS011;66891;46.884;17.436;2023-04-29T06:11:54;13.10;;;7.57;;
77591;SDS011;66891;46.884;17.436;2023-04-29T06:14:23;11.50;;;6.57;;
77591;SDS011;66891;46.884;17.436;2023-04-29T06:16:50;11.57;;;6.60;;
77591;SDS011;66891;46.884;17.436;2023-04-29T06:19:19;12.10;;;6.23;;
77591;SDS011;66891;46.884;17.436;2023-04-29T06:21:46;13.50;;;6.70;;
77591;SDS011;66891;46.884;17.436;2023-04-29T06:24:13;12.90;;;6.45;;
77591;SDS011;66891;46.884;17.436;2023-04-29T06:26:41;12.30;;;6.68;;
77591;SDS011;66891;46.884;17.436;2023-04-29T06:29:09;12.45;;;6.72;;
77591;SDS011;66891;46.884;17.436;2023-04-29T06:31:38;11.53;;;6.23;;
77591;SDS011;66891;46.884;17.436;2023-04-29T06:34:05;12.10;;;5.88;;
77591;SDS011;66891;46.884;17.436;2023-04-29T06:36:32;11.60;;;6.05;;
77591;SDS011;66891;46.884;17.436;2023-04-29T06:39:00;16.02;;;7.75;;
77591;SDS011;66891;46.884;17.436;2023-04-29T06:41:27;13.85;;;6.43;;
77591;SDS011;66891;46.884;17.436;2023-04-29T06:43:55;12.67;;;5.60;;
77591;SDS011;66891;46.884;17.436;2023-04-29T06:46:22;11.77;;;5.85;;
77591;SDS011;66891;46.884;17.436;2023-04-29T06:48:51;14.35;;;6.45;;
77591;SDS011;66891;46.884;17.436;2023-04-29T06:51:18;12.55;;;5.88;;
77591;SDS011;66891;46.884;17.436;2023-04-29T06:53:46;12.88;;;5.93;;
77591;SDS011;66891;46.884;17.436;2023-04-29T06:56:13;10.70;;;6.17;;
77591;SDS011;66891;46.884;17.436;2023-04-29T06:58:42;11.50;;;6.68;;
77591;SDS011;66891;46.884;17.436;2023-04-29T07:01:10;12.52;;;6.20;;
77591;SDS011;66891;46.884;17.436;2023-04-29T07:03:38;11.20;;;6.60;;
77591;SDS011;66891;46.884;17.436;2023-04-29T07:06:08;11.00;;;6.32;;
77591;SDS011;66891;46.884;17.436;2023-04-29T07:08:35;12.07;;;6.37;;
77591;SDS011;66891;46.884;17.436;2023-04-29T07:11:03;11.38;;;6.70;;
77591;SDS011;66891;46.884;17.436;2023-04-29T07:13:30;13.07;;;6.38;;
77591;SDS011;66891;46.884;17.436;2023-04-29T07:15:59;14.30;;;8.05;;
77591;SDS011;66891;46.884;17.436;2023-04-29T07:18:26;14.80;;;7.25;;
77591;SDS011;66891;46.884;17.436;2023-04-29T07:20:53;16.37;;;7.70;;
77591;SDS011;66891;46.884;17.436;2023-04-29T07:23:23;15.63;;;7.80;;
77591;SDS011;66891;46.884;17.436;2023-04-29T07:25:50;14.52;;;7.10;;
77591;SDS011;66891;46.884;17.436;2023-04-29T07:28:18;13.13;;;7.07;;
77591;SDS011;66891;46.884;17.436;2023-04-29T07:30:45;13.80;;;7.40;;
77591;SDS011;66891;46.884;17.436;2023-04-29T07:33:12;15.23;;;7.33;;
77591;SDS011;66891;46.884;17.436;2023-04-29T07:35:39;11.90;;;6.18;;
77591;SDS011;66891;46.884;17.436;2023-04-29T07:38:08;11.55;;;6.30;;
77591;SDS011;66891;46.884;17.436;2023-04-29T07:40:37;11.95;;;6.07;;
77591;SDS011;66891;46.884;17.436;2023-04-29T07:43:04;12.10;;;6.25;;
77591;SDS011;66891;46.884;17.436;2023-04-29T07:45:33;13.53;;;5.90;;
77591;SDS011;66891;46.884;17.436;2023-04-29T07:48:00;10.02;;;5.55;;
77591;SDS011;66891;46.884;17.436;2023-04-29T07:50:28;12.57;;;5.88;;
77591;SDS011;66891;46.884;17.436;2023-04-29T07:52:55;11.25;;;6.30;;
77591;SDS011;66891;46.884;17.436;2023-04-29T07:55:23;12.98;;;6.22;;
77591;SDS011;66891;46.884;17.436;2023-04-29T07:57:54;10.13;;;4.97;;
77591;SDS011;66891;46.884;17.436;2023-04-29T08:00:23;10.35;;;5.22;;
77591;SDS011;66891;46.884;17.436;2023-04-29T08:02:51;11.85;;;5.88;;
77591;SDS011;66891;46.884;17.436;2023-04-29T08:05:18;15.55;;;6.32;;
77591;SDS011;66891;46.884;17.436;2023-04-29T08:07:50;12.10;;;6.10;;
77591;SDS011;66891;46.884;17.436;2023-04-29T08:10:18;11.93;;;6.00;;
77591;SDS011;66891;46.884;17.436;2023-04-29T08:12:48;13.02;;;6.45;;
77591;SDS011;66891;46.884;17.436;2023-04-29T08:15:17;12.20;;;6.35;;
77591;SDS011;66891;46.884;17.436;2023-04-29T08:17:44;11.98;;;6.25;;
77591;SDS011;66891;46.884;17.436;2023-04-29T08:20:11;13.57;;;7.30;;
77591;SDS011;66891;46.884;17.436;2023-04-29T08:22:39;12.37;;;6.30;;
77591;SDS011;66891;46.884;17.436;2023-04-29T08:25:07;15.02;;;6.70;;
77591;SDS011;66891;46.884;17.436;2023-04-29T08:27:34;13.23;;;6.78;;
77591;SDS011;66891;46.884;17.436;2023-04-29T08:30:17;11.80;;;6.85;;
77591;SDS011;66891;46.884;17.436;2023-04-29T08:32:45;13.55;;;7.30;;
77591;SDS011;66891;46.884;17.436;2023-04-29T08:35:12;13.10;;;7.27;;
77591;SDS011;66891;46.884;17.436;2023-04-29T08:37:40;13.90;;;7.30;;
77591;SDS011;66891;46.884;17.436;2023-04-29T08:40:07;11.40;;;6.60;;
77591;SDS011;66891;46.884;17.436;2023-04-29T08:42:36;9.98;;;5.45;;
77591;SDS011;66891;46.884;17.436;2023-04-29T08:45:03;10.43;;;4.88;;
77591;SDS011;66891;46.884;17.436;2023-04-29T08:47:33;10.03;;;4.57;;
77591;SDS011;66891;46.884;17.436;2023-04-29T08:50:03;10.05;;;4.53;;
77591;SDS011;66891;46.884;17.436;2023-04-29T08:52:31;8.50;;;3.83;;
77591;SDS011;66891;46.884;17.436;2023-04-29T08:54:59;7.90;;;3.88;;
77591;SDS011;66891;46.884;17.436;2023-04-29T08:57:29;10.20;;;4.72;;
77591;SDS011;66891;46.884;17.436;2023-04-29T08:59:58;10.37;;;3.90;;
77591;SDS011;66891;46.884;17.436;2023-04-29T09:02:27;8.00;;;4.38;;
77591;SDS011;66891;46.884;17.436;2023-04-29T09:04:59;9.38;;;3.83;;
77591;SDS011;66891;46.884;17.436;2023-04-29T09:07:33;8.30;;;4.03;;
77591;SDS011;66891;46.884;17.436;2023-04-29T09:10:01;8.43;;;4.10;;
77591;SDS011;66891;46.884;17.436;2023-04-29T09:12:30;9.30;;;4.23;;
77591;SDS011;66891;46.884;17.436;2023-04-29T09:14:58;10.00;;;4.50;;
77591;SDS011;66891;46.884;17.436;2023-04-29T09:17:41;10.98;;;4.00;;
77591;SDS011;66891;46.884;17.436;2023-04-29T09:20:27;8.73;;;4.13;;
77591;SDS011;66891;46.884;17.436;2023-04-29T09:22:56;9.75;;;4.18;;
77591;SDS011;66891;46.884;17.436;2023-04-29T09:25:25;9.10;;;3.77;;
77591;SDS011;66891;46.884;17.436;2023-04-29T09:27:53;9.55;;;3.40;;
77591;SDS011;66891;46.884;17.436;2023-04-29T09:30:22;10.07;;;4.45;;
77591;SDS011;66891;46.884;17.436;2023-04-29T09:33:06;8.23;;;3.90;;
77591;SDS011;66891;46.884;17.436;2023-04-29T09:35:38;7.47;;;3.40;;
77591;SDS011;66891;46.884;17.436;2023-04-29T09:38:07;8.53;;;3.87;;
77591;SDS011;66891;46.884;17.436;2023-04-29T09:40:35;8.07;;;3.70;;
77591;SDS011;66891;46.884;17.436;2023-04-29T09:43:23;7.43;;;3.50;;
77591;SDS011;66891;46.884;17.436;2023-04-29T09:45:50;7.95;;;2.85;;
77591;SDS011;66891;46.884;17.436;2023-04-29T09:48:17;8.07;;;3.17;;
77591;SDS011;66891;46.884;17.436;2023-04-29T09:51:00;8.70;;;3.20;;
77591;SDS011;66891;46.884;17.436;2023-04-29T09:53:29;8.88;;;4.20;;
77591;SDS011;66891;46.884;17.436;2023-04-29T09:55:57;8.70;;;4.18;;
77591;SDS011;66891;46.884;17.436;2023-04-29T09:58:26;8.57;;;3.50;;
77591;SDS011;66891;46.884;17.436;2023-04-29T10:00:57;8.32;;;3.90;;
77591;SDS011;66891;46.884;17.436;2023-04-29T10:03:27;8.20;;;3.57;;
77591;SDS011;66891;46.884;17.436;2023-04-29T10:06:01;7.03;;;2.85;;
77591;SDS011;66891;46.884;17.436;2023-04-29T10:08:29;8.23;;;3.50;;
77591;SDS011;66891;46.884;17.436;2023-04-29T10:10:58;8.00;;;3.65;;
77591;SDS011;66891;46.884;17.436;2023-04-29T10:13:26;8.57;;;3.80;;
77591;SDS011;66891;46.884;17.436;2023-04-29T10:15:57;10.27;;;4.50;;
77591;SDS011;66891;46.884;17.436;2023-04-29T10:18:29;8.32;;;3.58;;
77591;SDS011;66891;46.884;17.436;2023-04-29T10:21:05;9.02;;;3.90;;
77591;SDS011;66891;46.884;17.436;2023-04-29T10:23:34;7.80;;;3.10;;
77591;SDS011;66891;46.884;17.436;2023-04-29T10:26:03;8.27;;;3.38;;
77591;SDS011;66891;46.884;17.436;2023-04-29T10:28:32;6.83;;;3.30;;
77591;SDS011;66891;46.884;17.436;2023-04-29T10:31:02;8.40;;;3.90;;
77591;SDS011;66891;46.884;17.436;2023-04-29T10:33:32;7.25;;;2.92;;
77591;SDS011;66891;46.884;17.436;2023-04-29T10:36:02;7.28;;;2.70;;
77591;SDS011;66891;46.884;17.436;2023-04-29T10:38:32;7.88;;;2.88;;
77591;SDS011;66891;46.884;17.436;2023-04-29T10:41:02;7.53;;;3.03;;
77591;SDS011;66891;46.884;17.436;2023-04-29T10:43:35;6.53;;;2.67;;
77591;SDS011;66891;46.884;17.436;2023-04-29T10:48:55;6.38;;;2.75;;
77591;SDS011;66891;46.884;17.436;2023-04-29T10:51:29;6.95;;;3.03;;
77591;SDS011;66891;46.884;17.436;2023-04-29T10:54:00;8.57;;;3.67;;
77591;SDS011;66891;46.884;17.436;2023-04-29T10:56:36;7.50;;;3.63;;
77591;SDS011;66891;46.884;17.436;2023-04-29T10:59:05;7.55;;;3.08;;
77591;SDS011;66891;46.884;17.436;2023-04-29T11:01:42;7.97;;;3.33;;
77591;SDS011;66891;46.884;17.436;2023-04-29T11:04:11;7.68;;;3.22;;
77591;SDS011;66891;46.884;17.436;2023-04-29T11:06:40;8.37;;;3.67;;
77591;SDS011;66891;46.884;17.436;2023-04-29T11:09:12;7.15;;;3.05;;
77591;SDS011;66891;46.884;17.436;2023-04-29T11:11:45;5.65;;;1.90;;
77591;SDS011;66891;46.884;17.436;2023-04-29T11:14:34;5.20;;;1.50;;
77591;SDS011;66891;46.884;17.436;2023-04-29T11:17:02;5.43;;;1.70;;
77591;SDS011;66891;46.884;17.436;2023-04-29T11:19:31;5.67;;;1.80;;
77591;SDS011;66891;46.884;17.436;2023-04-29T11:22:24;6.35;;;1.75;;
77591;SDS011;66891;46.884;17.436;2023-04-29T11:24:54;5.40;;;1.70;;
77591;SDS011;66891;46.884;17.436;2023-04-29T11:27:24;5.82;;;2.00;;
77591;SDS011;66891;46.884;17.436;2023-04-29T11:29:53;6.65;;;2.13;;
77591;SDS011;66891;46.884;17.436;2023-04-29T11:32:30;5.63;;;2.33;;
77591;SDS011;66891;46.884;17.436;2023-04-29T11:35:08;7.03;;;2.30;;
77591;SDS011;66891;46.884;17.436;2023-04-29T11:37:37;6.55;;;2.25;;
77591;SDS011;66891;46.884;17.436;2023-04-29T11:40:07;5.38;;;2.20;;
77591;SDS011;66891;46.884;17.436;2023-04-29T11:42:35;6.05;;;1.90;;
77591;SDS011;66891;46.884;17.436;2023-04-29T11:45:07;5.57;;;1.93;;
77591;SDS011;66891;46.884;17.436;2023-04-29T11:47:34;6.00;;;2.25;;
77591;SDS011;66891;46.884;17.436;2023-04-29T11:50:03;6.40;;;1.92;;
77591;SDS011;66891;46.884;17.436;2023-04-29T11:52:33;5.45;;;1.80;;
77591;SDS011;66891;46.884;17.436;2023-04-29T11:55:02;5.20;;;2.00;;
77591;SDS011;66891;46.884;17.436;2023-04-29T11:57:32;5.60;;;1.80;;
77591;SDS011;66891;46.884;17.436;2023-04-29T12:00:00;6.32;;;2.00;;
77591;SDS011;66891;46.884;17.436;2023-04-29T12:02:28;6.10;;;2.45;;
77591;SDS011;66891;46.884;17.436;2023-04-29T12:04:56;5.90;;;2.17;;
77591;SDS011;66891;46.884;17.436;2023-04-29T12:07:25;6.50;;;2.88;;
77591;SDS011;66891;46.884;17.436;2023-04-29T12:09:53;7.07;;;2.70;;
77591;SDS011;66891;46.884;17.436;2023-04-29T12:12:21;6.30;;;2.75;;
77591;SDS011;66891;46.884;17.436;2023-04-29T12:14:50;6.63;;;3.17;;
77591;SDS011;66891;46.884;17.436;2023-04-29T12:17:18;6.13;;;2.20;;
77591;SDS011;66891;46.884;17.436;2023-04-29T12:19:47;6.80;;;2.50;;
77591;SDS011;66891;46.884;17.436;2023-04-29T12:22:15;6.47;;;2.83;;
77591;SDS011;66891;46.884;17.436;2023-04-29T12:24:42;6.10;;;2.40;;
77591;SDS011;66891;46.884;17.436;2023-04-29T12:27:09;7.82;;;3.00;;
77591;SDS011;66891;46.884;17.436;2023-04-29T12:29:37;7.07;;;3.08;;
77591;SDS011;66891;46.884;17.436;2023-04-29T12:32:11;8.98;;;4.00;;
77591;SDS011;66891;46.884;17.436;2023-04-29T12:34:44;8.70;;;3.73;;
77591;SDS011;66891;46.884;17.436;2023-04-29T12:37:12;8.20;;;2.97;;
77591;SDS011;66891;46.884;17.436;2023-04-29T12:39:41;8.43;;;3.30;;
77591;SDS011;66891;46.884;17.436;2023-04-29T12:42:13;6.82;;;3.50;;
77591;SDS011;66891;46.884;17.436;2023-04-29T12:44:44;10.18;;;4.13;;
77591;SDS011;66891;46.884;17.436;2023-04-29T12:47:16;7.43;;;2.90;;
77591;SDS011;66891;46.884;17.436;2023-04-29T12:49:44;7.40;;;3.05;;
77591;SDS011;66891;46.884;17.436;2023-04-29T12:52:12;7.05;;;2.92;;
77591;SDS011;66891;46.884;17.436;2023-04-29T12:54:40;6.40;;;2.40;;
77591;SDS011;66891;46.884;17.436;2023-04-29T12:57:09;5.80;;;2.20;;
77591;SDS011;66891;46.884;17.436;2023-04-29T12:59:38;6.77;;;2.17;;
77591;SDS011;66891;46.884;17.436;2023-04-29T13:02:07;5.78;;;2.30;;
77591;SDS011;66891;46.884;17.436;2023-04-29T13:04:36;6.45;;;2.20;;
77591;SDS011;66891;46.884;17.436;2023-04-29T13:07:05;5.95;;;2.20;;
77591;SDS011;66891;46.884;17.436;2023-04-29T13:09:33;5.85;;;2.15;;
77591;SDS011;66891;46.884;17.436;2023-04-29T13:12:01;5.30;;;2.10;;
77591;SDS011;66891;46.884;17.436;2023-04-29T13:14:28;7.60;;;2.25;;
77591;SDS011;66891;46.884;17.436;2023-04-29T13:16:55;5.68;;;2.05;;
77591;SDS011;66891;46.884;17.436;2023-04-29T13:19:23;5.93;;;2.30;;
77591;SDS011;66891;46.884;17.436;2023-04-29T13:22:12;7.22;;;2.70;;
77591;SDS011;66891;46.884;17.436;2023-04-29T13:24:39;8.20;;;2.30;;
77591;SDS011;66891;46.884;17.436;2023-04-29T13:27:06;8.48;;;2.53;;
77591;SDS011;66891;46.884;17.436;2023-04-29T13:29:33;6.15;;;2.20;;
77591;SDS011;66891;46.884;17.436;2023-04-29T13:32:01;5.95;;;2.00;;
77591;SDS011;66891;46.884;17.436;2023-04-29T13:34:28;6.80;;;2.33;;
77591;SDS011;66891;46.884;17.436;2023-04-29T13:36:55;6.77;;;2.40;;
77591;SDS011;66891;46.884;17.436;2023-04-29T13:39:24;5.93;;;2.03;;
77591;SDS011;66891;46.884;17.436;2023-04-29T13:41:51;6.28;;;1.90;;
77591;SDS011;66891;46.884;17.436;2023-04-29T13:44:24;6.78;;;2.58;;
77591;SDS011;66891;46.884;17.436;2023-04-29T13:47:05;6.53;;;1.83;;
77591;SDS011;66891;46.884;17.436;2023-04-29T13:49:33;5.57;;;1.80;;
77591;SDS011;66891;46.884;17.436;2023-04-29T13:52:20;4.95;;;1.55;;
77591;SDS011;66891;46.884;17.436;2023-04-29T13:54:52;5.97;;;1.90;;
77591;SDS011;66891;46.884;17.436;2023-04-29T13:57:22;6.50;;;2.35;;
77591;SDS011;66891;46.884;17.436;2023-04-29T13:59:52;5.68;;;2.00;;
77591;SDS011;66891;46.884;17.436;2023-04-29T14:02:21;5.63;;;2.10;;
77591;SDS011;66891;46.884;17.436;2023-04-29T14:04:51;6.75;;;2.03;;
77591;SDS011;66891;46.884;17.436;2023-04-29T14:07:19;6.18;;;2.03;;
77591;SDS011;66891;46.884;17.436;2023-04-29T14:09:47;6.00;;;2.25;;
77591;SDS011;66891;46.884;17.436;2023-04-29T14:12:16;6.45;;;2.22;;
77591;SDS011;66891;46.884;17.436;2023-04-29T14:14:44;6.60;;;2.67;;
77591;SDS011;66891;46.884;17.436;2023-04-29T14:17:11;9.27;;;4.35;;
77591;SDS011;66891;46.884;17.436;2023-04-29T14:19:38;6.03;;;2.35;;
77591;SDS011;66891;46.884;17.436;2023-04-29T14:22:05;6.70;;;2.83;;
77591;SDS011;66891;46.884;17.436;2023-04-29T14:24:33;7.38;;;2.90;;
77591;SDS011;66891;46.884;17.436;2023-04-29T14:27:00;8.07;;;3.10;;
77591;SDS011;66891;46.884;17.436;2023-04-29T14:29:29;7.63;;;3.20;;
77591;SDS011;66891;46.884;17.436;2023-04-29T14:31:56;8.10;;;3.75;;
77591;SDS011;66891;46.884;17.436;2023-04-29T14:34:30;7.95;;;3.55;;
77591;SDS011;66891;46.884;17.436;2023-04-29T14:36:57;6.55;;;2.28;;
77591;SDS011;66891;46.884;17.436;2023-04-29T14:39:24;6.77;;;2.57;;
77591;SDS011;66891;46.884;17.436;2023-04-29T14:41:53;5.47;;;1.70;;
77591;SDS011;66891;46.884;17.436;2023-04-29T14:44:20;5.95;;;1.42;;